sensor_id;sensor_type;location;lat;lon;timestamp;P1;durP1;ratioP1;P2;durP2;ratioP2
7813;SDS011;3952;48.364;16.022;2023-03-23T00:00:17;7.27;;;4.30;;
7813;SDS011;3952;48.364;16.022;2023-03-23T00:02:44;4.47;;;4.17;;
7813;SDS011;3952;48.364;16.022;2023-03-23T00:05:11;4.97;;;4.57;;
7813;SDS011;3952;48.364;16.022;2023-03-23T00:07:39;4.50;;;4.10;;
7813;SDS011;3952;48.364;16.022;2023-03-23T00:10:12;4.73;;;4.33;;
7813;SDS011;3952;48.364;16.022;2023-03-23T00:12:40;4.50;;;4.17;;
7813;SDS011;3952;48.364;16.022;2023-03-23T00:15:08;4.60;;;4.20;;
7813;SDS011;3952;48.364;16.022;2023-03-23T00:17:38;4.60;;;4.23;;
7813;SDS011;3952;48.364;16.022;2023-03-23T00:20:08;4.90;;;3.80;;
7813;SDS011;3952;48.364;16.022;2023-03-23T00:22:37;4.40;;;4.20;;
7813;SDS011;3952;48.364;16.022;2023-03-23T00:25:06;3.90;;;3.70;;
7813;SDS011;3952;48.364;16.022;2023-03-23T00:27:35;5.70;;;3.90;;
7813;SDS011;3952;48.364;16.022;2023-03-23T00:30:03;4.60;;;3.60;;
7813;SDS011;3952;48.364;16.022;2023-03-23T00:32:31;3.93;;;3.73;;
7813;SDS011;3952;48.364;16.022;2023-03-23T00:34:59;6.47;;;4.50;;
7813;SDS011;3952;48.364;16.022;2023-03-23T00:37:26;4.67;;;4.37;;
7813;SDS011;3952;48.364;16.022;2023-03-23T00:39:54;3.80;;;3.60;;
7813;SDS011;3952;48.364;16.022;2023-03-23T00:42:22;4.47;;;4.13;;
7813;SDS011;3952;48.364;16.022;2023-03-23T00:44:52;9.17;;;4.37;;
7813;SDS011;3952;48.364;16.022;2023-03-23T00:47:25;5.47;;;4.30;;
7813;SDS011;3952;48.364;16.022;2023-03-23T00:49:52;4.43;;;4.00;;
7813;SDS011;3952;48.364;16.022;2023-03-23T00:52:21;5.23;;;4.70;;
7813;SDS011;3952;48.364;16.022;2023-03-23T00:54:48;4.63;;;4.30;;
7813;SDS011;3952;48.364;16.022;2023-03-23T00:57:15;4.90;;;4.60;;
7813;SDS011;3952;48.364;16.022;2023-03-23T00:59:43;5.10;;;4.70;;
7813;SDS011;3952;48.364;16.022;2023-03-23T01:02:11;5.07;;;4.67;;
7813;SDS011;3952;48.364;16.022;2023-03-23T01:04:38;4.80;;;4.50;;
7813;SDS011;3952;48.364;16.022;2023-03-23T01:07:10;4.60;;;4.30;;
7813;SDS011;3952;48.364;16.022;2023-03-23T01:09:38;5.17;;;4.87;;
7813;SDS011;3952;48.364;16.022;2023-03-23T01:12:10;4.47;;;4.17;;
7813;SDS011;3952;48.364;16.022;2023-03-23T01:14:37;4.57;;;4.27;;
7813;SDS011;3952;48.364;16.022;2023-03-23T01:17:04;5.30;;;4.20;;
7813;SDS011;3952;48.364;16.022;2023-03-23T01:19:33;5.13;;;4.63;;
7813;SDS011;3952;48.364;16.022;2023-03-23T01:22:00;4.53;;;4.23;;
7813;SDS011;3952;48.364;16.022;2023-03-23T01:24:27;4.40;;;4.10;;
7813;SDS011;3952;48.364;16.022;2023-03-23T01:26:55;4.00;;;3.70;;
7813;SDS011;3952;48.364;16.022;2023-03-23T01:29:22;4.40;;;4.00;;
7813;SDS011;3952;48.364;16.022;2023-03-23T01:31:49;4.00;;;3.80;;
7813;SDS011;3952;48.364;16.022;2023-03-23T01:34:16;4.30;;;4.00;;
7813;SDS011;3952;48.364;16.022;2023-03-23T01:36:45;4.53;;;4.00;;
7813;SDS011;3952;48.364;16.022;2023-03-23T01:39:12;4.40;;;4.20;;
7813;SDS011;3952;48.364;16.022;2023-03-23T01:41:39;5.13;;;4.53;;
7813;SDS011;3952;48.364;16.022;2023-03-23T01:44:07;4.50;;;4.10;;
7813;SDS011;3952;48.364;16.022;2023-03-23T01:46:50;4.17;;;3.90;;
7813;SDS011;3952;48.364;16.022;2023-03-23T01:49:19;4.83;;;4.27;;
7813;SDS011;3952;48.364;16.022;2023-03-23T01:51:53;4.60;;;4.20;;
7813;SDS011;3952;48.364;16.022;2023-03-23T01:54:23;4.63;;;4.20;;
7813;SDS011;3952;48.364;16.022;2023-03-23T01:56:53;4.47;;;4.17;;
7813;SDS011;3952;48.364;16.022;2023-03-23T01:59:23;5.13;;;4.73;;
7813;SDS011;3952;48.364;16.022;2023-03-23T02:01:53;4.90;;;4.60;;
7813;SDS011;3952;48.364;16.022;2023-03-23T02:04:21;5.20;;;4.40;;
7813;SDS011;3952;48.364;16.022;2023-03-23T02:06:52;4.23;;;3.93;;
7813;SDS011;3952;48.364;16.022;2023-03-23T02:09:23;4.80;;;4.23;;
7813;SDS011;3952;48.364;16.022;2023-03-23T02:11:52;4.37;;;3.97;;
7813;SDS011;3952;48.364;16.022;2023-03-23T02:14:20;5.40;;;4.87;;
7813;SDS011;3952;48.364;16.022;2023-03-23T02:16:50;5.60;;;4.20;;
7813;SDS011;3952;48.364;16.022;2023-03-23T02:19:31;5.07;;;4.67;;
7813;SDS011;3952;48.364;16.022;2023-03-23T02:22:50;4.50;;;4.10;;
7813;SDS011;3952;48.364;16.022;2023-03-23T02:31:47;4.07;;;3.87;;
7813;SDS011;3952;48.364;16.022;2023-03-23T02:34:28;5.00;;;4.70;;
7813;SDS011;3952;48.364;16.022;2023-03-23T02:37:02;4.17;;;3.93;;
7813;SDS011;3952;48.364;16.022;2023-03-23T02:39:32;4.03;;;3.83;;
7813;SDS011;3952;48.364;16.022;2023-03-23T02:42:04;4.27;;;4.07;;
7813;SDS011;3952;48.364;16.022;2023-03-23T02:44:34;4.60;;;4.17;;
7813;SDS011;3952;48.364;16.022;2023-03-23T02:47:04;6.90;;;4.50;;
7813;SDS011;3952;48.364;16.022;2023-03-23T02:49:36;5.70;;;4.30;;
7813;SDS011;3952;48.364;16.022;2023-03-23T02:52:08;4.50;;;4.20;;
7813;SDS011;3952;48.364;16.022;2023-03-23T02:54:40;4.60;;;3.73;;
7813;SDS011;3952;48.364;16.022;2023-03-23T02:57:10;4.40;;;4.20;;
7813;SDS011;3952;48.364;16.022;2023-03-23T02:59:38;4.97;;;4.53;;
7813;SDS011;3952;48.364;16.022;2023-03-23T03:02:07;5.07;;;4.67;;
7813;SDS011;3952;48.364;16.022;2023-03-23T03:04:40;5.77;;;4.67;;
7813;SDS011;3952;48.364;16.022;2023-03-23T03:07:15;4.70;;;4.40;;
7813;SDS011;3952;48.364;16.022;2023-03-23T03:09:54;4.93;;;4.53;;
7813;SDS011;3952;48.364;16.022;2023-03-23T03:12:28;4.70;;;4.37;;
7813;SDS011;3952;48.364;16.022;2023-03-23T03:15:02;5.23;;;4.73;;
7813;SDS011;3952;48.364;16.022;2023-03-23T03:17:39;4.57;;;4.17;;
7813;SDS011;3952;48.364;16.022;2023-03-23T03:20:12;5.00;;;4.70;;
7813;SDS011;3952;48.364;16.022;2023-03-23T03:22:41;5.67;;;5.30;;
7813;SDS011;3952;48.364;16.022;2023-03-23T03:25:10;5.07;;;4.63;;
7813;SDS011;3952;48.364;16.022;2023-03-23T03:27:40;4.67;;;4.27;;
7813;SDS011;3952;48.364;16.022;2023-03-23T03:30:11;4.40;;;4.20;;
7813;SDS011;3952;48.364;16.022;2023-03-23T03:32:43;4.93;;;4.50;;
7813;SDS011;3952;48.364;16.022;2023-03-23T03:35:15;4.50;;;4.20;;
7813;SDS011;3952;48.364;16.022;2023-03-23T03:37:43;5.43;;;4.87;;
7813;SDS011;3952;48.364;16.022;2023-03-23T03:40:12;5.90;;;5.40;;
7813;SDS011;3952;48.364;16.022;2023-03-23T03:42:41;5.80;;;5.40;;
7813;SDS011;3952;48.364;16.022;2023-03-23T03:45:11;5.73;;;5.33;;
7813;SDS011;3952;48.364;16.022;2023-03-23T03:47:40;5.13;;;4.80;;
7813;SDS011;3952;48.364;16.022;2023-03-23T03:50:07;5.63;;;5.30;;
7813;SDS011;3952;48.364;16.022;2023-03-23T03:52:36;5.23;;;4.83;;
7813;SDS011;3952;48.364;16.022;2023-03-23T03:55:06;5.03;;;4.73;;
7813;SDS011;3952;48.364;16.022;2023-03-23T03:57:34;5.53;;;5.17;;
7813;SDS011;3952;48.364;16.022;2023-03-23T04:00:02;5.63;;;5.13;;
7813;SDS011;3952;48.364;16.022;2023-03-23T04:02:39;5.43;;;5.07;;
7813;SDS011;3952;48.364;16.022;2023-03-23T04:05:07;4.97;;;4.67;;
7813;SDS011;3952;48.364;16.022;2023-03-23T04:07:37;5.17;;;4.87;;
7813;SDS011;3952;48.364;16.022;2023-03-23T04:10:06;6.10;;;5.70;;
7813;SDS011;3952;48.364;16.022;2023-03-23T04:12:34;6.03;;;5.63;;
7813;SDS011;3952;48.364;16.022;2023-03-23T04:15:11;5.50;;;5.10;;
7813;SDS011;3952;48.364;16.022;2023-03-23T04:17:39;6.10;;;5.70;;
7813;SDS011;3952;48.364;16.022;2023-03-23T04:20:08;5.53;;;5.13;;
7813;SDS011;3952;48.364;16.022;2023-03-23T04:22:41;6.87;;;6.33;;
7813;SDS011;3952;48.364;16.022;2023-03-23T04:25:10;6.40;;;6.00;;
7813;SDS011;3952;48.364;16.022;2023-03-23T04:27:38;6.10;;;5.73;;
7813;SDS011;3952;48.364;16.022;2023-03-23T04:30:12;8.60;;;6.60;;
7813;SDS011;3952;48.364;16.022;2023-03-23T04:32:40;7.40;;;6.80;;
7813;SDS011;3952;48.364;16.022;2023-03-23T04:35:08;7.27;;;6.77;;
7813;SDS011;3952;48.364;16.022;2023-03-23T04:37:37;6.33;;;5.60;;
7813;SDS011;3952;48.364;16.022;2023-03-23T04:40:08;6.13;;;5.73;;
7813;SDS011;3952;48.364;16.022;2023-03-23T04:42:38;7.97;;;5.27;;
7813;SDS011;3952;48.364;16.022;2023-03-23T04:45:07;6.37;;;5.87;;
7813;SDS011;3952;48.364;16.022;2023-03-23T04:47:35;5.97;;;5.47;;
7813;SDS011;3952;48.364;16.022;2023-03-23T04:50:07;5.07;;;4.77;;
7813;SDS011;3952;48.364;16.022;2023-03-23T04:52:37;6.30;;;5.60;;
7813;SDS011;3952;48.364;16.022;2023-03-23T04:55:12;7.63;;;5.87;;
7813;SDS011;3952;48.364;16.022;2023-03-23T04:57:40;8.13;;;5.77;;
7813;SDS011;3952;48.364;16.022;2023-03-23T05:00:08;6.30;;;5.90;;
7813;SDS011;3952;48.364;16.022;2023-03-23T05:02:39;7.03;;;5.90;;
7813;SDS011;3952;48.364;16.022;2023-03-23T05:05:07;6.77;;;6.17;;
7813;SDS011;3952;48.364;16.022;2023-03-23T05:07:36;7.53;;;7.03;;
7813;SDS011;3952;48.364;16.022;2023-03-23T05:10:03;6.90;;;6.30;;
7813;SDS011;3952;48.364;16.022;2023-03-23T05:12:34;7.50;;;6.90;;
7813;SDS011;3952;48.364;16.022;2023-03-23T05:15:02;7.83;;;6.57;;
7813;SDS011;3952;48.364;16.022;2023-03-23T05:17:31;9.10;;;6.97;;
7813;SDS011;3952;48.364;16.022;2023-03-23T05:19:59;7.00;;;6.40;;
7813;SDS011;3952;48.364;16.022;2023-03-23T05:22:26;6.77;;;6.07;;
7813;SDS011;3952;48.364;16.022;2023-03-23T05:24:54;7.00;;;6.50;;
7813;SDS011;3952;48.364;16.022;2023-03-23T05:27:21;6.47;;;6.07;;
7813;SDS011;3952;48.364;16.022;2023-03-23T05:29:49;7.37;;;6.57;;
7813;SDS011;3952;48.364;16.022;2023-03-23T05:32:17;6.53;;;5.87;;
7813;SDS011;3952;48.364;16.022;2023-03-23T05:34:45;7.10;;;6.60;;
7813;SDS011;3952;48.364;16.022;2023-03-23T05:37:12;7.80;;;7.20;;
7813;SDS011;3952;48.364;16.022;2023-03-23T05:39:39;7.17;;;6.50;;
7813;SDS011;3952;48.364;16.022;2023-03-23T05:42:07;7.00;;;6.40;;
7813;SDS011;3952;48.364;16.022;2023-03-23T05:44:34;6.40;;;6.00;;
7813;SDS011;3952;48.364;16.022;2023-03-23T05:47:03;7.13;;;6.60;;
7813;SDS011;3952;48.364;16.022;2023-03-23T05:49:30;7.10;;;6.50;;
7813;SDS011;3952;48.364;16.022;2023-03-23T05:51:58;6.27;;;5.87;;
7813;SDS011;3952;48.364;16.022;2023-03-23T05:54:25;7.30;;;6.60;;
7813;SDS011;3952;48.364;16.022;2023-03-23T05:56:52;7.33;;;6.63;;
7813;SDS011;3952;48.364;16.022;2023-03-23T05:59:19;7.23;;;6.60;;
7813;SDS011;3952;48.364;16.022;2023-03-23T06:01:47;7.03;;;6.43;;
7813;SDS011;3952;48.364;16.022;2023-03-23T06:04:16;7.17;;;6.47;;
7813;SDS011;3952;48.364;16.022;2023-03-23T06:06:43;6.87;;;6.27;;
7813;SDS011;3952;48.364;16.022;2023-03-23T06:09:10;7.23;;;6.73;;
7813;SDS011;3952;48.364;16.022;2023-03-23T06:11:38;7.03;;;6.53;;
7813;SDS011;3952;48.364;16.022;2023-03-23T06:14:05;7.20;;;6.60;;
7813;SDS011;3952;48.364;16.022;2023-03-23T06:16:32;7.30;;;6.27;;
7813;SDS011;3952;48.364;16.022;2023-03-23T06:18:59;7.80;;;7.00;;
7813;SDS011;3952;48.364;16.022;2023-03-23T06:21:30;6.73;;;6.03;;
7813;SDS011;3952;48.364;16.022;2023-03-23T06:23:58;7.47;;;6.97;;
7813;SDS011;3952;48.364;16.022;2023-03-23T06:26:27;8.63;;;6.53;;
7813;SDS011;3952;48.364;16.022;2023-03-23T06:28:57;7.30;;;6.80;;
7813;SDS011;3952;48.364;16.022;2023-03-23T06:31:24;7.30;;;6.80;;
7813;SDS011;3952;48.364;16.022;2023-03-23T06:33:53;7.10;;;6.57;;
7813;SDS011;3952;48.364;16.022;2023-03-23T06:36:20;7.80;;;7.20;;
7813;SDS011;3952;48.364;16.022;2023-03-23T06:38:49;8.53;;;7.63;;
7813;SDS011;3952;48.364;16.022;2023-03-23T06:41:16;8.83;;;8.03;;
7813;SDS011;3952;48.364;16.022;2023-03-23T06:43:44;8.20;;;7.57;;
7813;SDS011;3952;48.364;16.022;2023-03-23T06:46:11;8.80;;;8.00;;
7813;SDS011;3952;48.364;16.022;2023-03-23T06:48:38;9.17;;;8.47;;
7813;SDS011;3952;48.364;16.022;2023-03-23T06:51:06;9.93;;;9.03;;
7813;SDS011;3952;48.364;16.022;2023-03-23T06:53:33;9.93;;;9.00;;
7813;SDS011;3952;48.364;16.022;2023-03-23T06:56:03;8.37;;;7.63;;
7813;SDS011;3952;48.364;16.022;2023-03-23T06:58:31;9.27;;;8.40;;
7813;SDS011;3952;48.364;16.022;2023-03-23T07:00:58;8.83;;;8.13;;
7813;SDS011;3952;48.364;16.022;2023-03-23T07:03:26;9.30;;;8.60;;
7813;SDS011;3952;48.364;16.022;2023-03-23T07:05:54;9.00;;;8.17;;
7813;SDS011;3952;48.364;16.022;2023-03-23T07:08:21;9.47;;;8.63;;
7813;SDS011;3952;48.364;16.022;2023-03-23T07:10:50;9.33;;;8.53;;
7813;SDS011;3952;48.364;16.022;2023-03-23T07:13:19;12.03;;;8.67;;
7813;SDS011;3952;48.364;16.022;2023-03-23T07:15:47;9.07;;;8.37;;
7813;SDS011;3952;48.364;16.022;2023-03-23T07:18:15;13.37;;;11.87;;
7813;SDS011;3952;48.364;16.022;2023-03-23T07:20:46;23.23;;;16.57;;
7813;SDS011;3952;48.364;16.022;2023-03-23T07:23:15;19.60;;;17.43;;
7813;SDS011;3952;48.364;16.022;2023-03-23T07:25:42;13.33;;;12.00;;
7813;SDS011;3952;48.364;16.022;2023-03-23T07:28:10;11.73;;;9.03;;
7813;SDS011;3952;48.364;16.022;2023-03-23T07:30:38;9.67;;;8.77;;
7813;SDS011;3952;48.364;16.022;2023-03-23T07:33:06;10.07;;;9.07;;
7813;SDS011;3952;48.364;16.022;2023-03-23T07:35:34;8.90;;;8.20;;
7813;SDS011;3952;48.364;16.022;2023-03-23T07:38:02;9.60;;;8.67;;
7813;SDS011;3952;48.364;16.022;2023-03-23T07:40:30;8.53;;;7.83;;
7813;SDS011;3952;48.364;16.022;2023-03-23T07:42:59;8.83;;;8.23;;
7813;SDS011;3952;48.364;16.022;2023-03-23T07:45:28;10.87;;;8.30;;
7813;SDS011;3952;48.364;16.022;2023-03-23T07:47:57;11.10;;;8.03;;
7813;SDS011;3952;48.364;16.022;2023-03-23T07:50:25;12.43;;;7.90;;
7813;SDS011;3952;48.364;16.022;2023-03-23T07:52:53;10.70;;;7.93;;
7813;SDS011;3952;48.364;16.022;2023-03-23T07:55:21;14.33;;;7.90;;
7813;SDS011;3952;48.364;16.022;2023-03-23T07:57:50;13.63;;;8.40;;
7813;SDS011;3952;48.364;16.022;2023-03-23T08:00:19;12.77;;;11.30;;
7813;SDS011;3952;48.364;16.022;2023-03-23T08:02:49;12.47;;;10.03;;
7813;SDS011;3952;48.364;16.022;2023-03-23T08:05:21;10.63;;;9.63;;
7813;SDS011;3952;48.364;16.022;2023-03-23T08:07:51;8.77;;;7.97;;
7813;SDS011;3952;48.364;16.022;2023-03-23T08:10:20;10.53;;;9.43;;
7813;SDS011;3952;48.364;16.022;2023-03-23T08:12:50;14.00;;;11.00;;
7813;SDS011;3952;48.364;16.022;2023-03-23T08:15:18;7.93;;;7.23;;
7813;SDS011;3952;48.364;16.022;2023-03-23T08:17:47;7.47;;;6.70;;
7813;SDS011;3952;48.364;16.022;2023-03-23T08:20:15;7.37;;;6.77;;
7813;SDS011;3952;48.364;16.022;2023-03-23T08:22:53;8.00;;;7.30;;
7813;SDS011;3952;48.364;16.022;2023-03-23T08:25:23;6.80;;;6.40;;
7813;SDS011;3952;48.364;16.022;2023-03-23T08:27:51;8.03;;;6.40;;
7813;SDS011;3952;48.364;16.022;2023-03-23T08:30:20;6.83;;;6.37;;
7813;SDS011;3952;48.364;16.022;2023-03-23T08:32:49;6.63;;;6.13;;
7813;SDS011;3952;48.364;16.022;2023-03-23T08:35:17;7.77;;;6.00;;
7813;SDS011;3952;48.364;16.022;2023-03-23T08:37:46;6.27;;;5.77;;
7813;SDS011;3952;48.364;16.022;2023-03-23T08:40:16;6.33;;;5.67;;
7813;SDS011;3952;48.364;16.022;2023-03-23T08:42:46;6.23;;;5.83;;
7813;SDS011;3952;48.364;16.022;2023-03-23T08:45:14;6.00;;;5.40;;
7813;SDS011;3952;48.364;16.022;2023-03-23T08:47:43;6.07;;;5.67;;
7813;SDS011;3952;48.364;16.022;2023-03-23T08:50:18;6.63;;;6.13;;
7813;SDS011;3952;48.364;16.022;2023-03-23T08:52:48;5.67;;;5.17;;
7813;SDS011;3952;48.364;16.022;2023-03-23T08:55:15;5.50;;;5.00;;
7813;SDS011;3952;48.364;16.022;2023-03-23T08:57:44;5.03;;;4.80;;
7813;SDS011;3952;48.364;16.022;2023-03-23T09:00:12;4.57;;;4.37;;
7813;SDS011;3952;48.364;16.022;2023-03-23T09:02:44;6.13;;;5.00;;
7813;SDS011;3952;48.364;16.022;2023-03-23T09:05:12;4.63;;;4.27;;
7813;SDS011;3952;48.364;16.022;2023-03-23T09:07:41;4.53;;;4.30;;
7813;SDS011;3952;48.364;16.022;2023-03-23T09:10:11;4.70;;;4.40;;
7813;SDS011;3952;48.364;16.022;2023-03-23T09:12:39;4.37;;;4.07;;
7813;SDS011;3952;48.364;16.022;2023-03-23T09:15:07;4.07;;;3.80;;
7813;SDS011;3952;48.364;16.022;2023-03-23T09:17:38;4.30;;;4.00;;
7813;SDS011;3952;48.364;16.022;2023-03-23T09:20:07;4.20;;;3.97;;
7813;SDS011;3952;48.364;16.022;2023-03-23T09:22:37;4.23;;;3.93;;
7813;SDS011;3952;48.364;16.022;2023-03-23T09:25:05;4.37;;;4.07;;
7813;SDS011;3952;48.364;16.022;2023-03-23T09:27:35;4.63;;;4.33;;
7813;SDS011;3952;48.364;16.022;2023-03-23T09:30:04;4.30;;;4.00;;
7813;SDS011;3952;48.364;16.022;2023-03-23T09:32:33;4.33;;;3.90;;
7813;SDS011;3952;48.364;16.022;2023-03-23T09:35:01;4.27;;;3.87;;
7813;SDS011;3952;48.364;16.022;2023-03-23T09:37:31;4.50;;;3.97;;
7813;SDS011;3952;48.364;16.022;2023-03-23T09:40:00;4.43;;;4.03;;
7813;SDS011;3952;48.364;16.022;2023-03-23T09:42:33;4.40;;;4.00;;
7813;SDS011;3952;48.364;16.022;2023-03-23T09:45:12;4.13;;;3.83;;
7813;SDS011;3952;48.364;16.022;2023-03-23T09:48:00;4.30;;;4.00;;
7813;SDS011;3952;48.364;16.022;2023-03-23T09:50:39;4.37;;;3.97;;
7813;SDS011;3952;48.364;16.022;2023-03-23T09:53:12;4.67;;;4.30;;
7813;SDS011;3952;48.364;16.022;2023-03-23T09:55:43;4.67;;;4.37;;
7813;SDS011;3952;48.364;16.022;2023-03-23T09:58:14;7.17;;;3.70;;
7813;SDS011;3952;48.364;16.022;2023-03-23T10:00:50;3.90;;;3.70;;
7813;SDS011;3952;48.364;16.022;2023-03-23T10:03:30;4.50;;;4.13;;
7813;SDS011;3952;48.364;16.022;2023-03-23T10:06:01;5.37;;;4.00;;
7813;SDS011;3952;48.364;16.022;2023-03-23T10:08:30;4.20;;;3.90;;
7813;SDS011;3952;48.364;16.022;2023-03-23T10:11:00;4.40;;;4.10;;
7813;SDS011;3952;48.364;16.022;2023-03-23T10:13:40;4.23;;;3.93;;
7813;SDS011;3952;48.364;16.022;2023-03-23T10:16:17;4.03;;;3.57;;
7813;SDS011;3952;48.364;16.022;2023-03-23T10:18:50;4.37;;;3.70;;
7813;SDS011;3952;48.364;16.022;2023-03-23T10:21:23;4.00;;;3.67;;
7813;SDS011;3952;48.364;16.022;2023-03-23T10:23:53;5.10;;;3.97;;
7813;SDS011;3952;48.364;16.022;2023-03-23T10:26:28;3.80;;;3.60;;
7813;SDS011;3952;48.364;16.022;2023-03-23T10:29:11;3.90;;;3.60;;
7813;SDS011;3952;48.364;16.022;2023-03-23T10:31:45;3.83;;;3.47;;
7813;SDS011;3952;48.364;16.022;2023-03-23T10:34:18;4.63;;;3.85;;
7813;SDS011;3952;48.364;16.022;2023-03-23T10:36:55;4.63;;;3.55;;
7813;SDS011;3952;48.364;16.022;2023-03-23T10:39:30;5.38;;;3.92;;
7813;SDS011;3952;48.364;16.022;2023-03-23T10:42:01;5.40;;;3.78;;
7813;SDS011;3952;48.364;16.022;2023-03-23T10:44:33;5.10;;;3.33;;
7813;SDS011;3952;48.364;16.022;2023-03-23T10:47:02;3.42;;;3.22;;
7813;SDS011;3952;48.364;16.022;2023-03-23T10:49:33;3.38;;;3.17;;
7813;SDS011;3952;48.364;16.022;2023-03-23T10:52:09;4.60;;;3.83;;
7813;SDS011;3952;48.364;16.022;2023-03-23T10:54:46;3.85;;;3.65;;
7813;SDS011;3952;48.364;16.022;2023-03-23T10:57:20;4.10;;;3.67;;
7813;SDS011;3952;48.364;16.022;2023-03-23T10:59:57;5.50;;;3.67;;
7813;SDS011;3952;48.364;16.022;2023-03-23T11:02:31;5.07;;;3.30;;
7813;SDS011;3952;48.364;16.022;2023-03-23T11:05:04;3.70;;;3.30;;
7813;SDS011;3952;48.364;16.022;2023-03-23T11:07:39;3.00;;;2.80;;
7813;SDS011;3952;48.364;16.022;2023-03-23T11:10:16;3.05;;;2.80;;
7813;SDS011;3952;48.364;16.022;2023-03-23T11:12:49;3.22;;;3.03;;
7813;SDS011;3952;48.364;16.022;2023-03-23T11:15:24;3.50;;;3.30;;
7813;SDS011;3952;48.364;16.022;2023-03-23T11:17:55;3.40;;;3.10;;
7813;SDS011;3952;48.364;16.022;2023-03-23T11:20:27;3.60;;;3.40;;
7813;SDS011;3952;48.364;16.022;2023-03-23T11:22:56;5.80;;;3.30;;
7813;SDS011;3952;48.364;16.022;2023-03-23T11:25:23;3.50;;;2.97;;
7813;SDS011;3952;48.364;16.022;2023-03-23T11:27:51;3.43;;;2.93;;
7813;SDS011;3952;48.364;16.022;2023-03-23T11:30:22;4.13;;;3.50;;
7813;SDS011;3952;48.364;16.022;2023-03-23T11:32:52;3.60;;;2.80;;
7813;SDS011;3952;48.364;16.022;2023-03-23T11:35:23;3.10;;;2.80;;
7813;SDS011;3952;48.364;16.022;2023-03-23T11:37:53;3.30;;;3.10;;
7813;SDS011;3952;48.364;16.022;2023-03-23T11:40:22;3.90;;;3.33;;
7813;SDS011;3952;48.364;16.022;2023-03-23T11:42:57;3.20;;;3.00;;
7813;SDS011;3952;48.364;16.022;2023-03-23T11:45:31;3.07;;;2.87;;
7813;SDS011;3952;48.364;16.022;2023-03-23T11:48:03;3.87;;;3.30;;
7813;SDS011;3952;48.364;16.022;2023-03-23T11:50:45;4.63;;;3.23;;
7813;SDS011;3952;48.364;16.022;2023-03-23T11:53:20;3.50;;;3.13;;
7813;SDS011;3952;48.364;16.022;2023-03-23T11:55:55;4.03;;;2.93;;
7813;SDS011;3952;48.364;16.022;2023-03-23T11:58:30;3.20;;;3.00;;
7813;SDS011;3952;48.364;16.022;2023-03-23T12:01:00;3.67;;;3.37;;
7813;SDS011;3952;48.364;16.022;2023-03-23T12:03:41;3.13;;;2.93;;
7813;SDS011;3952;48.364;16.022;2023-03-23T12:06:24;9.80;;;3.10;;
7813;SDS011;3952;48.364;16.022;2023-03-23T12:09:03;4.15;;;3.05;;
7813;SDS011;3952;48.364;16.022;2023-03-23T12:11:44;3.10;;;2.90;;
7813;SDS011;3952;48.364;16.022;2023-03-23T12:14:20;4.72;;;3.60;;
7813;SDS011;3952;48.364;16.022;2023-03-23T12:16:59;3.20;;;2.90;;
7813;SDS011;3952;48.364;16.022;2023-03-23T12:19:39;3.83;;;3.33;;
7813;SDS011;3952;48.364;16.022;2023-03-23T12:22:16;5.80;;;3.22;;
7813;SDS011;3952;48.364;16.022;2023-03-23T12:24:54;3.13;;;2.70;;
7813;SDS011;3952;48.364;16.022;2023-03-23T12:27:32;3.47;;;3.28;;
7813;SDS011;3952;48.364;16.022;2023-03-23T12:30:12;2.90;;;2.70;;
7813;SDS011;3952;48.364;16.022;2023-03-23T12:32:58;3.47;;;3.05;;
7813;SDS011;3952;48.364;16.022;2023-03-23T12:35:41;3.33;;;3.03;;
7813;SDS011;3952;48.364;16.022;2023-03-23T12:41:17;15.43;;;3.30;;
7813;SDS011;3952;48.364;16.022;2023-03-23T12:43:51;3.40;;;3.10;;
7813;SDS011;3952;48.364;16.022;2023-03-23T12:46:30;3.65;;;3.00;;
7813;SDS011;3952;48.364;16.022;2023-03-23T12:49:27;3.45;;;3.15;;
7813;SDS011;3952;48.364;16.022;2023-03-23T12:52:02;5.25;;;3.13;;
7813;SDS011;3952;48.364;16.022;2023-03-23T12:54:37;3.60;;;3.30;;
7813;SDS011;3952;48.364;16.022;2023-03-23T12:57:14;2.90;;;2.70;;
7813;SDS011;3952;48.364;16.022;2023-03-23T12:59:48;4.55;;;2.95;;
7813;SDS011;3952;48.364;16.022;2023-03-23T13:02:20;4.57;;;2.63;;
7813;SDS011;3952;48.364;16.022;2023-03-23T13:04:52;2.85;;;2.65;;
7813;SDS011;3952;48.364;16.022;2023-03-23T13:07:26;2.90;;;2.70;;
7813;SDS011;3952;48.364;16.022;2023-03-23T13:10:00;3.08;;;2.88;;
7813;SDS011;3952;48.364;16.022;2023-03-23T13:12:32;2.95;;;2.72;;
7813;SDS011;3952;48.364;16.022;2023-03-23T13:15:06;3.08;;;2.85;;
7813;SDS011;3952;48.364;16.022;2023-03-23T13:17:47;3.13;;;2.92;;
7813;SDS011;3952;48.364;16.022;2023-03-23T13:20:37;2.90;;;2.70;;
7813;SDS011;3952;48.364;16.022;2023-03-23T13:23:21;2.78;;;2.60;;
7813;SDS011;3952;48.364;16.022;2023-03-23T13:25:51;3.25;;;2.90;;
7813;SDS011;3952;48.364;16.022;2023-03-23T13:28:23;2.85;;;2.65;;
7813;SDS011;3952;48.364;16.022;2023-03-23T13:30:57;3.45;;;2.40;;
7813;SDS011;3952;48.364;16.022;2023-03-23T13:33:29;4.25;;;2.45;;
7813;SDS011;3952;48.364;16.022;2023-03-23T13:36:03;4.70;;;2.60;;
7813;SDS011;3952;48.364;16.022;2023-03-23T13:38:34;3.55;;;2.90;;
7813;SDS011;3952;48.364;16.022;2023-03-23T13:41:06;2.30;;;2.20;;
7813;SDS011;3952;48.364;16.022;2023-03-23T13:43:36;2.28;;;2.17;;
7813;SDS011;3952;48.364;16.022;2023-03-23T13:46:09;2.63;;;2.53;;
7813;SDS011;3952;48.364;16.022;2023-03-23T13:48:43;2.60;;;2.40;;
7813;SDS011;3952;48.364;16.022;2023-03-23T13:51:24;3.83;;;1.85;;
7813;SDS011;3952;48.364;16.022;2023-03-23T13:54:20;2.50;;;2.00;;
7813;SDS011;3952;48.364;16.022;2023-03-23T13:56:53;2.15;;;1.67;;
7813;SDS011;3952;48.364;16.022;2023-03-23T13:59:30;1.83;;;1.73;;
7813;SDS011;3952;48.364;16.022;2023-03-23T14:08:09;2.78;;;2.58;;
7813;SDS011;3952;48.364;16.022;2023-03-23T14:10:39;2.33;;;2.17;;
7813;SDS011;3952;48.364;16.022;2023-03-23T14:13:11;2.30;;;2.20;;
7813;SDS011;3952;48.364;16.022;2023-03-23T14:15:53;2.25;;;2.05;;
7813;SDS011;3952;48.364;16.022;2023-03-23T14:18:23;2.22;;;2.13;;
7813;SDS011;3952;48.364;16.022;2023-03-23T14:20:55;2.75;;;2.35;;
7813;SDS011;3952;48.364;16.022;2023-03-23T14:23:26;2.15;;;1.95;;
7813;SDS011;3952;48.364;16.022;2023-03-23T14:25:54;2.42;;;2.22;;
7813;SDS011;3952;48.364;16.022;2023-03-23T14:28:23;2.22;;;2.05;;
7813;SDS011;3952;48.364;16.022;2023-03-23T14:30:53;3.20;;;2.17;;
7813;SDS011;3952;48.364;16.022;2023-03-23T14:33:22;2.05;;;1.90;;
7813;SDS011;3952;48.364;16.022;2023-03-23T14:35:53;1.88;;;1.77;;
7813;SDS011;3952;48.364;16.022;2023-03-23T14:38:23;3.70;;;2.00;;
7813;SDS011;3952;48.364;16.022;2023-03-23T14:41:00;2.15;;;2.05;;
7813;SDS011;3952;48.364;16.022;2023-03-23T14:43:29;2.88;;;2.67;;
7813;SDS011;3952;48.364;16.022;2023-03-23T14:46:00;4.20;;;2.97;;
7813;SDS011;3952;48.364;16.022;2023-03-23T14:48:28;2.70;;;2.40;;
7813;SDS011;3952;48.364;16.022;2023-03-23T14:50:57;3.15;;;2.38;;
7813;SDS011;3952;48.364;16.022;2023-03-23T14:53:31;4.18;;;2.30;;
7813;SDS011;3952;48.364;16.022;2023-03-23T14:56:02;3.78;;;2.60;;
7813;SDS011;3952;48.364;16.022;2023-03-23T14:58:32;2.90;;;2.70;;
7813;SDS011;3952;48.364;16.022;2023-03-23T15:01:01;2.63;;;2.22;;
7813;SDS011;3952;48.364;16.022;2023-03-23T15:03:34;2.50;;;2.35;;
7813;SDS011;3952;48.364;16.022;2023-03-23T15:06:05;8.57;;;2.50;;
7813;SDS011;3952;48.364;16.022;2023-03-23T15:08:40;5.20;;;2.20;;
7813;SDS011;3952;48.364;16.022;2023-03-23T15:11:10;2.20;;;2.10;;
7813;SDS011;3952;48.364;16.022;2023-03-23T15:13:42;3.95;;;2.20;;
7813;SDS011;3952;48.364;16.022;2023-03-23T15:16:13;4.53;;;2.45;;
7813;SDS011;3952;48.364;16.022;2023-03-23T15:18:46;2.70;;;1.97;;
7813;SDS011;3952;48.364;16.022;2023-03-23T15:21:20;2.10;;;2.00;;
7813;SDS011;3952;48.364;16.022;2023-03-23T15:23:51;2.25;;;2.05;;
7813;SDS011;3952;48.364;16.022;2023-03-23T15:26:24;2.78;;;1.70;;
7813;SDS011;3952;48.364;16.022;2023-03-23T15:29:05;2.10;;;1.97;;
7813;SDS011;3952;48.364;16.022;2023-03-23T15:31:42;3.30;;;1.80;;
7813;SDS011;3952;48.364;16.022;2023-03-23T15:34:17;1.88;;;1.30;;
7813;SDS011;3952;48.364;16.022;2023-03-23T15:36:55;1.63;;;1.30;;
7813;SDS011;3952;48.364;16.022;2023-03-23T15:39:27;3.47;;;1.83;;